createdAt,value
2018-03-15T00:02:29.540Z,98001.31
2018-03-15T00:05:01.234Z,97999.48
2018-03-15T00:07:33.057Z,97988.16
2018-03-15T00:10:04.877Z,97996.46
2018-03-15T00:12:36.721Z,97996.77
2018-03-15T00:15:07.683Z,97993.33
2018-03-15T00:17:38.473Z,97993.55
2018-03-15T00:20:09.588Z,98000.69
2018-03-15T00:22:41.025Z,97992.43
2018-03-15T00:25:12.488Z,97991.47
2018-03-15T00:27:44.252Z,97987.42
2018-03-15T00:30:15.068Z,97983.16
2018-03-15T00:32:46.500Z,97983.34
2018-03-15T00:35:18.221Z,97982.43
2018-03-15T00:37:50.044Z,97981.10
2018-03-15T00:40:22.036Z,97979.11
2018-03-15T00:42:52.864Z,97976.20
2018-03-15T00:45:23.643Z,97975.97
2018-03-15T00:47:55.456Z,97975.13
2018-03-15T00:50:27.001Z,97967.67
2018-03-15T00:52:58.268Z,97959.55
2018-03-15T00:55:30.381Z,97960.44
2018-03-15T00:58:02.565Z,97957.30
2018-03-15T01:00:34.291Z,97952.30
2018-03-15T01:03:05.510Z,97948.76
2018-03-15T01:05:36.305Z,97948.94
2018-03-15T01:08:08.154Z,97949.14
2018-03-15T01:10:39.352Z,97942.16
2018-03-15T01:13:10.869Z,97935.14
2018-03-15T01:15:42.768Z,97931.60
2018-03-15T01:18:13.992Z,97913.11
2018-03-15T01:20:45.802Z,97909.17
2018-03-15T01:23:16.656Z,97901.12
2018-03-15T01:25:48.093Z,97902.30
2018-03-15T01:28:19.364Z,97898.77
2018-03-15T01:30:51.072Z,97892.61
2018-03-15T01:33:22.545Z,97897.86
2018-03-15T01:35:53.674Z,97889.70
2018-03-15T01:38:25.203Z,97886.73
2018-03-15T01:40:57.120Z,97882.63
2018-03-15T01:43:28.443Z,97874.87
2018-03-15T01:45:59.793Z,97881.61
2018-03-15T01:48:32.217Z,97868.99
2018-03-15T01:51:03.684Z,97867.03
2018-03-15T01:53:34.980Z,97864.33
2018-03-15T01:56:06.805Z,97863.20
2018-03-15T01:58:38.390Z,97862.31
2018-03-15T02:01:09.880Z,97862.04
2018-03-15T02:03:41.721Z,97846.09
2018-03-15T02:06:13.083Z,97840.62
2018-03-15T02:08:44.608Z,97840.41
2018-03-15T02:11:16.487Z,97840.06
2018-03-15T02:13:47.900Z,97831.08
2018-03-15T02:16:19.645Z,97827.85
2018-03-15T02:18:50.706Z,97830.60
2018-03-15T02:21:21.889Z,97827.25
2018-03-15T02:23:53.827Z,97820.91
2018-03-15T02:26:25.117Z,97816.56
2018-03-15T02:28:56.689Z,97813.56
2018-03-15T02:31:28.637Z,97810.44
2018-03-15T02:33:59.879Z,97812.42
2018-03-15T02:36:31.754Z,97805.30
2018-03-15T02:39:03.135Z,97812.58
2018-03-15T02:41:34.569Z,97809.94
2018-03-15T02:44:05.929Z,97807.27
2018-03-15T02:46:38.877Z,97808.33
2018-03-15T02:49:10.530Z,97804.75
2018-03-15T02:51:42.118Z,97808.88
2018-03-15T02:54:13.550Z,97810.38
2018-03-15T02:56:44.726Z,97800.47
2018-03-15T02:59:16.081Z,97796.59
2018-03-15T03:01:47.527Z,97790.20
2018-03-15T03:04:18.879Z,97798.17
2018-03-15T03:06:50.766Z,97799.97
2018-03-15T03:09:21.950Z,97798.11
2018-03-15T03:11:53.945Z,97794.92
2018-03-15T03:14:25.454Z,97796.61
2018-03-15T03:16:57.342Z,97793.38
2018-03-15T03:19:28.461Z,97794.53
2018-03-15T03:21:59.793Z,97797.86
2018-03-15T03:24:31.269Z,97796.20
2018-03-15T03:27:02.501Z,97796.11
2018-03-15T03:29:34.333Z,97800.59
2018-03-15T03:32:07.241Z,97801.35
2018-03-15T03:34:38.517Z,97791.44
2018-03-15T03:37:10.017Z,97796.78
2018-03-15T03:39:41.296Z,97803.31
2018-03-15T03:42:12.666Z,97797.84
2018-03-15T03:44:44.153Z,97796.97
2018-03-15T03:47:15.915Z,97798.45
2018-03-15T03:49:47.436Z,97799.72
2018-03-15T03:52:19.361Z,97802.41
2018-03-15T03:54:51.025Z,97797.90
2018-03-15T03:57:22.426Z,97797.99
2018-03-15T03:59:53.534Z,97802.19
2018-03-15T04:02:24.772Z,97799.57
2018-03-15T04:04:56.471Z,97799.72
2018-03-15T04:07:29.605Z,97804.83
2018-03-15T04:10:01.222Z,97804.95
2018-03-15T04:12:33.009Z,97801.38
2018-03-15T04:15:05.381Z,97807.98
2018-03-15T04:17:36.789Z,97813.89
2018-03-15T04:20:08.099Z,97813.78
2018-03-15T04:22:40.086Z,97814.07
2018-03-15T04:25:11.970Z,97816.92
2018-03-15T04:27:43.542Z,97819.13
2018-03-15T04:30:14.693Z,97826.72
2018-03-15T04:32:46.179Z,97832.84
2018-03-15T04:35:17.969Z,97829.31
2018-03-15T04:37:49.485Z,97826.36
2018-03-15T04:40:21.264Z,97819.77
2018-03-15T04:42:52.580Z,97818.45
2018-03-15T04:45:25.305Z,97809.96
2018-03-15T04:47:56.617Z,97807.58
2018-03-15T04:50:27.981Z,97806.69
2018-03-15T04:52:59.577Z,97807.50
2018-03-15T04:55:45.545Z,97810.19
2018-03-15T04:58:17.207Z,97818.50
2018-03-15T05:00:48.722Z,97815.72
2018-03-15T05:03:20.329Z,97818.87
2018-03-15T05:05:51.409Z,97814.78
2018-03-15T05:08:22.632Z,97822.56
2018-03-15T05:10:54.060Z,97821.78
2018-03-15T05:13:25.393Z,97821.96
2018-03-15T05:15:56.204Z,97827.21
2018-03-15T05:18:28.129Z,97826.18
2018-03-15T05:21:00.042Z,97822.73
2018-03-15T05:23:31.606Z,97819.20
2018-03-15T05:26:03.082Z,97808.70
2018-03-15T05:28:34.328Z,97807.14
2018-03-15T05:31:07.515Z,97805.05
2018-03-15T05:33:39.112Z,97797.91
2018-03-15T05:36:10.393Z,97798.30
2018-03-15T05:38:42.153Z,97797.22
2018-03-15T05:41:13.745Z,97796.33
2018-03-15T05:43:44.641Z,97794.59
2018-03-15T05:46:16.565Z,97791.20
2018-03-15T05:48:49.493Z,97795.61
2018-03-15T05:51:20.348Z,97785.92
2018-03-15T05:53:52.065Z,97787.53
2018-03-15T05:56:23.221Z,97773.28
2018-03-15T05:58:54.382Z,97768.77
2018-03-15T06:01:26.565Z,97768.04
2018-03-15T06:03:57.421Z,97762.02
2018-03-15T06:06:28.826Z,97751.52
2018-03-15T06:08:59.964Z,97748.38
2018-03-15T06:11:30.688Z,97748.75
2018-03-15T06:14:02.484Z,97746.23
2018-03-15T06:16:33.989Z,97742.22
2018-03-15T06:19:05.233Z,97744.05
2018-03-15T06:21:37.093Z,97738.50
2018-03-15T06:24:08.596Z,97743.93
2018-03-15T06:26:43.401Z,97736.13
2018-03-15T06:29:20.638Z,97729.17
2018-03-15T06:31:51.838Z,97738.88
2018-03-15T06:34:22.971Z,97733.55
2018-03-15T06:36:55.273Z,97731.28
2018-03-15T06:39:26.129Z,97730.55
2018-03-15T06:41:57.053Z,97727.52
2018-03-15T06:44:27.833Z,97722.36
2018-03-15T06:46:59.120Z,97726.58
2018-03-15T06:49:30.740Z,97718.33
2018-03-15T06:52:02.161Z,97722.55
2018-03-15T06:54:32.946Z,97732.36
2018-03-15T06:57:04.203Z,97726.00
2018-03-15T06:59:44.241Z,97726.12
2018-03-15T07:02:14.986Z,97725.69
2018-03-15T07:04:46.106Z,97728.61
2018-03-15T07:07:16.917Z,97731.34
2018-03-15T07:09:47.716Z,97729.33
2018-03-15T07:12:18.535Z,97726.47
2018-03-15T07:14:49.925Z,97726.91
2018-03-15T07:17:20.701Z,97721.55
2018-03-15T07:19:51.849Z,97711.12
2018-03-15T07:22:22.669Z,97713.77
2018-03-15T07:24:54.273Z,97706.62
2018-03-15T07:27:25.133Z,97701.55
2018-03-15T07:29:55.908Z,97700.53
2018-03-15T07:32:26.740Z,97698.88
2018-03-15T07:34:58.223Z,97702.98
2018-03-15T07:37:29.072Z,97699.87
2018-03-15T07:40:00.157Z,97706.86
2018-03-15T07:42:31.502Z,97695.23
2018-03-15T07:45:02.344Z,97701.58
2018-03-15T07:47:33.413Z,97697.73
2018-03-15T07:50:04.247Z,97701.58
2018-03-15T07:52:36.445Z,97706.37
2018-03-15T07:55:07.597Z,97709.13
2018-03-15T07:57:39.113Z,97708.68
2018-03-15T08:00:10.478Z,97708.02
2018-03-15T08:02:41.372Z,97703.52
2018-03-15T08:05:12.333Z,97705.91
2018-03-15T08:07:43.558Z,97701.02
2018-03-15T08:10:15.099Z,97691.05
2018-03-15T08:12:46.725Z,97700.28
2018-03-15T08:15:17.822Z,97694.45
2018-03-15T08:17:48.630Z,97687.14
2018-03-15T08:20:20.000Z,97679.62
2018-03-15T08:22:52.186Z,97684.85
2018-03-15T08:25:23.018Z,97683.83
2018-03-15T08:27:53.874Z,97680.63
2018-03-15T08:30:24.701Z,97686.42
2018-03-15T08:32:56.250Z,97683.09
2018-03-15T08:35:27.421Z,97680.79
2018-03-15T08:37:59.899Z,97679.08
2018-03-15T08:40:31.693Z,97683.22
2018-03-15T08:43:02.539Z,97681.42
2018-03-15T08:45:33.351Z,97681.92
2018-03-15T08:48:04.152Z,97672.78
2018-03-15T08:50:35.034Z,97664.69
2018-03-15T08:53:06.282Z,97666.16
2018-03-15T08:55:37.417Z,97661.50
2018-03-15T08:58:08.254Z,97663.33
2018-03-15T09:00:39.611Z,97665.12
2018-03-15T09:03:11.313Z,97660.48
2018-03-15T09:05:42.166Z,97648.84
2018-03-15T09:08:13.655Z,97653.91
2018-03-15T09:10:44.916Z,97644.92
2018-03-15T09:13:15.744Z,97644.55
2018-03-15T09:15:47.181Z,97642.92
2018-03-15T09:18:18.056Z,97644.45
2018-03-15T09:20:49.200Z,97641.43
2018-03-15T09:23:20.316Z,97642.94
2018-03-15T09:25:51.809Z,97635.63
2018-03-15T09:28:23.034Z,97640.69
2018-03-15T09:30:54.226Z,97630.34
2018-03-15T09:33:31.080Z,97623.54
2018-03-15T09:36:02.190Z,97625.14
2018-03-15T09:38:33.561Z,97623.23
2018-03-15T09:41:04.846Z,97605.50
2018-03-15T09:43:36.753Z,97610.79
2018-03-15T09:46:07.694Z,97605.80
2018-03-15T09:48:38.722Z,97605.11
2018-03-15T09:51:10.029Z,97601.77
2018-03-15T09:53:41.530Z,97594.15
2018-03-15T09:56:12.345Z,97593.45
2018-03-15T09:58:43.178Z,97591.03
2018-03-15T10:01:14.284Z,97580.78
2018-03-15T10:03:45.573Z,97581.25
2018-03-15T10:06:16.677Z,97573.35
2018-03-15T10:08:47.594Z,97565.45
2018-03-15T10:11:18.777Z,97566.97
2018-03-15T10:13:49.668Z,97563.86
2018-03-15T10:16:23.628Z,97566.95
2018-03-15T10:18:54.569Z,97550.34
2018-03-15T10:21:25.742Z,97550.26
2018-03-15T10:23:56.662Z,97551.05
2018-03-15T10:26:28.377Z,97555.34
2018-03-15T10:28:59.290Z,97550.11
2018-03-15T10:31:30.877Z,97543.13
2018-03-15T10:34:02.031Z,97536.55
2018-03-15T10:36:33.076Z,97544.48
2018-03-15T10:39:03.914Z,97554.30
2018-03-15T10:41:34.750Z,97541.38
2018-03-15T10:44:05.904Z,97543.09
2018-03-15T10:46:37.426Z,97536.97
2018-03-15T10:49:08.549Z,97535.97
2018-03-15T10:51:39.310Z,97523.95
2018-03-15T10:54:10.934Z,97520.56
2018-03-15T10:56:42.038Z,97512.02
2018-03-15T10:59:13.585Z,97510.17
2018-03-15T11:01:48.299Z,97512.59
2018-03-15T11:04:23.349Z,97511.45
2018-03-15T11:06:58.028Z,97497.86
2018-03-15T11:09:32.269Z,97490.42
2018-03-15T11:12:03.133Z,97487.64
2018-03-15T11:14:34.286Z,97487.03
2018-03-15T11:17:05.159Z,97482.36
2018-03-15T11:19:35.990Z,97482.69
2018-03-15T11:22:07.152Z,97477.98
2018-03-15T11:24:39.109Z,97477.95
2018-03-15T11:27:09.796Z,97480.00
2018-03-15T11:29:40.894Z,97472.20
2018-03-15T11:32:11.806Z,97466.75
2018-03-15T11:34:42.873Z,97461.03
2018-03-15T11:37:13.906Z,97459.52
2018-03-15T11:39:45.326Z,97459.85
2018-03-15T11:42:16.459Z,97454.87
2018-03-15T11:44:47.307Z,97449.27
2018-03-15T11:47:18.690Z,97443.13
2018-03-15T11:49:49.817Z,97448.88
2018-03-15T11:52:21.306Z,97438.76
2018-03-15T11:54:52.837Z,97438.84
2018-03-15T11:57:24.023Z,97432.42
2018-03-15T11:59:58.329Z,97432.23
2018-03-15T12:02:29.772Z,97421.48
2018-03-15T12:05:00.556Z,97416.37
2018-03-15T12:07:31.405Z,97414.60
2018-03-15T12:10:02.629Z,97410.30
2018-03-15T12:12:35.313Z,97390.62
2018-03-15T12:15:07.257Z,97398.83
2018-03-15T12:17:38.142Z,97392.69
2018-03-15T12:20:09.057Z,97385.73
2018-03-15T12:22:40.197Z,97382.75
2018-03-15T12:25:11.161Z,97378.53
2018-03-15T12:27:42.098Z,97372.70
2018-03-15T12:30:13.919Z,97365.14
2018-03-15T12:32:44.689Z,97361.55
2018-03-15T12:35:15.593Z,97358.91
2018-03-15T12:37:46.822Z,97363.17
2018-03-15T12:40:17.710Z,97356.07
2018-03-15T12:42:48.486Z,97353.86
2018-03-15T12:45:19.401Z,97357.86
2018-03-15T12:47:53.613Z,97347.97
2018-03-15T12:50:24.497Z,97345.86
2018-03-15T12:52:55.932Z,97347.73
2018-03-15T12:55:27.403Z,97344.42
2018-03-15T12:57:58.214Z,97338.66
2018-03-15T13:00:29.235Z,97336.83
2018-03-15T13:03:00.448Z,97329.23
2018-03-15T13:05:31.269Z,97323.41
2018-03-15T13:08:02.101Z,97319.74
2018-03-15T13:10:37.769Z,97322.34
2018-03-15T13:13:09.180Z,97312.05
2018-03-15T13:15:40.333Z,97304.14
2018-03-15T13:18:11.156Z,97299.91
2018-03-15T13:20:41.958Z,97289.56
2018-03-15T13:23:13.622Z,97277.39
2018-03-15T13:25:45.009Z,97267.33
2018-03-15T13:28:15.865Z,97264.16
2018-03-15T13:30:46.953Z,97265.00
2018-03-15T13:33:17.922Z,97260.79
2018-03-15T13:35:48.793Z,97249.84
2018-03-15T13:38:19.933Z,97249.80
2018-03-15T13:40:50.761Z,97247.83
2018-03-15T13:43:21.630Z,97244.10
2018-03-15T13:45:53.177Z,97236.50
2018-03-15T13:48:24.250Z,97244.41
2018-03-15T13:50:55.957Z,97240.86
2018-03-15T13:53:26.821Z,97242.06
2018-03-15T13:55:58.407Z,97238.39
2018-03-15T13:58:29.277Z,97250.21
2018-03-15T14:01:00.574Z,97242.42
2018-03-15T14:03:31.686Z,97239.16
2018-03-15T14:06:04.145Z,97239.39
2018-03-15T14:08:35.205Z,97230.91
2018-03-15T14:11:06.522Z,97232.97
2018-03-15T14:13:37.365Z,97232.65
2018-03-15T14:16:08.625Z,97223.61
2018-03-15T14:18:39.637Z,97233.14
2018-03-15T14:21:10.866Z,97214.80
2018-03-15T14:23:41.634Z,97212.88
2018-03-15T14:26:12.488Z,97201.27
2018-03-15T14:28:43.532Z,97194.99
2018-03-15T14:31:14.392Z,97198.98
2018-03-15T14:33:45.214Z,97202.11
2018-03-15T14:36:16.451Z,97206.03
2018-03-15T14:38:47.291Z,97198.84
2018-03-15T14:41:18.178Z,97196.22
2018-03-15T14:43:51.338Z,97198.75
2018-03-15T14:46:22.218Z,97188.62
2018-03-15T14:48:53.401Z,97194.17
2018-03-15T14:51:24.188Z,97189.67
2018-03-15T14:53:55.166Z,97193.58
2018-03-15T14:56:26.282Z,97201.28
2018-03-15T14:58:57.018Z,97203.34
2018-03-15T15:01:27.875Z,97206.23
2018-03-15T15:03:58.929Z,97215.08
2018-03-15T15:06:29.774Z,97226.52
2018-03-15T15:09:00.622Z,97209.56
2018-03-15T15:11:31.892Z,97218.13
2018-03-15T15:14:02.722Z,97218.45
2018-03-15T15:16:33.593Z,97214.95
2018-03-15T15:19:04.734Z,97215.83
2018-03-15T15:21:35.494Z,97222.65
2018-03-15T15:24:06.656Z,97228.13
2018-03-15T15:26:37.609Z,97235.47
2018-03-15T15:29:08.631Z,97228.34
2018-03-15T15:31:39.637Z,97230.67
2018-03-15T15:34:10.466Z,97226.29
2018-03-15T15:36:41.369Z,97226.14
2018-03-15T15:39:12.649Z,97217.18
2018-03-15T15:41:43.489Z,97223.72
2018-03-15T15:44:15.294Z,97227.73
2018-03-15T15:46:46.204Z,97221.61
2018-03-15T15:49:16.997Z,97226.08
2018-03-15T15:51:48.672Z,97227.84
2018-03-15T15:54:19.509Z,97227.66
2018-03-15T15:56:50.407Z,97227.01
2018-03-15T15:59:21.536Z,97218.55
2018-03-15T16:01:52.414Z,97218.95
2018-03-15T16:04:23.317Z,97222.43
2018-03-15T16:06:54.542Z,97226.38
2018-03-15T16:09:25.480Z,97223.25
2018-03-15T16:11:56.799Z,97223.14
2018-03-15T16:14:27.826Z,97231.00
2018-03-15T16:17:04.469Z,97227.11
2018-03-15T16:19:35.609Z,97229.59
2018-03-15T16:22:06.554Z,97227.37
2018-03-15T16:24:37.344Z,97226.59
2018-03-15T16:27:08.622Z,97223.09
2018-03-15T16:29:39.493Z,97218.19
2018-03-15T16:32:10.444Z,97216.99
2018-03-15T16:34:41.618Z,97220.52
2018-03-15T16:37:12.585Z,97219.73
2018-03-15T16:39:43.585Z,97217.08
2018-03-15T16:42:14.397Z,97213.66
2018-03-15T16:44:45.311Z,97212.77
2018-03-15T16:47:16.442Z,97210.56
2018-03-15T16:49:47.293Z,97206.39
2018-03-15T16:52:18.119Z,97202.42
2018-03-15T16:54:53.219Z,97211.34
2018-03-15T16:57:24.065Z,97208.13
2018-03-15T16:59:55.821Z,97208.33
2018-03-15T17:02:26.629Z,97201.42
2018-03-15T17:04:57.605Z,97199.64
2018-03-15T17:07:28.809Z,97200.88
2018-03-15T17:09:59.705Z,97203.41
2018-03-15T17:12:30.541Z,97199.81
2018-03-15T17:15:01.670Z,97195.17
2018-03-15T17:17:32.547Z,97196.05
2018-03-15T17:20:03.574Z,97198.11
2018-03-15T17:22:35.510Z,97189.22
2018-03-15T17:25:06.739Z,97189.73
2018-03-15T17:27:38.050Z,97193.06
2018-03-15T17:30:10.135Z,97196.29
2018-03-15T17:32:41.817Z,97205.52
2018-03-15T17:35:13.356Z,97200.53
2018-03-15T17:37:44.325Z,97200.05
2018-03-15T17:40:15.742Z,97199.35
2018-03-15T17:42:47.038Z,97207.72
2018-03-15T17:45:18.089Z,97203.08
2018-03-15T17:47:49.382Z,97205.97
2018-03-15T17:50:20.512Z,97208.56
2018-03-15T17:52:52.169Z,97207.04
2018-03-15T17:55:23.439Z,97209.63
2018-03-15T17:57:54.386Z,97209.19
2018-03-15T18:00:26.038Z,97208.19
2018-03-15T18:02:56.933Z,97210.83
2018-03-15T18:05:27.773Z,97208.73
2018-03-15T18:07:58.890Z,97204.55
2018-03-15T18:10:29.970Z,97202.13
2018-03-15T18:13:00.928Z,97200.34
2018-03-15T18:15:33.230Z,97194.52
2018-03-15T18:18:04.138Z,97203.67
2018-03-15T18:20:35.078Z,97197.69
2018-03-15T18:23:06.545Z,97198.39
2018-03-15T18:25:37.798Z,97194.09
2018-03-15T18:28:08.934Z,97198.64
2018-03-15T18:30:40.306Z,97199.17
2018-03-15T18:33:11.248Z,97192.56
2018-03-15T18:35:42.312Z,97194.22
2018-03-15T18:38:13.765Z,97196.84
2018-03-15T18:40:44.623Z,97195.94
2018-03-15T18:43:16.922Z,97194.56
2018-03-15T18:45:48.010Z,97193.30
2018-03-15T18:48:19.153Z,97188.03
2018-03-15T18:50:50.362Z,97188.78
2018-03-15T18:53:21.535Z,97185.08
2018-03-15T18:55:52.386Z,97188.56
2018-03-15T18:58:24.239Z,97184.32
2018-03-15T19:00:55.090Z,97189.09
2018-03-15T19:03:26.007Z,97190.09
2018-03-15T19:05:56.916Z,97199.09
2018-03-15T19:08:28.615Z,97200.91
2018-03-15T19:11:00.325Z,97201.49
2018-03-15T19:13:31.246Z,97201.26
2018-03-15T19:16:02.366Z,97197.78
2018-03-15T19:18:33.305Z,97198.38
2018-03-15T19:21:04.266Z,97194.80
2018-03-15T19:23:35.761Z,97194.56
2018-03-15T19:26:06.728Z,97199.42
2018-03-15T19:28:37.682Z,97196.20
2018-03-15T19:31:08.898Z,97204.95
2018-03-15T19:33:39.762Z,97215.18
2018-03-15T19:36:11.205Z,97206.45
2018-03-15T19:38:42.105Z,97217.70
2018-03-15T19:41:12.988Z,97220.75
2018-03-15T19:43:44.141Z,97219.63
2018-03-15T19:46:15.021Z,97229.80
2018-03-15T19:48:46.189Z,97231.77
2018-03-15T19:51:17.326Z,97225.95
2018-03-15T19:53:48.161Z,97229.64
2018-03-15T19:56:19.042Z,97229.88
2018-03-15T19:58:50.161Z,97226.48
2018-03-15T20:01:21.018Z,97224.97
2018-03-15T20:03:52.220Z,97219.09
2018-03-15T20:06:23.190Z,97227.23
2018-03-15T20:08:54.362Z,97227.91
2018-03-15T20:11:25.285Z,97227.71
2018-03-15T20:13:56.862Z,97223.09
2018-03-15T20:16:28.450Z,97218.23
2018-03-15T20:19:03.177Z,97214.83
2018-03-15T20:21:34.364Z,97218.70
2018-03-15T20:24:36.041Z,97215.48
2018-03-15T20:27:07.194Z,97209.77
2018-03-15T20:29:38.030Z,97210.19
2018-03-15T20:32:09.845Z,97221.89
2018-03-15T20:34:41.034Z,97217.72
2018-03-15T20:37:11.934Z,97214.97
2018-03-15T20:41:50.959Z,97211.31
2018-03-15T20:44:22.317Z,97206.31
2018-03-15T20:49:03.182Z,97214.41
2018-03-15T20:51:34.122Z,97207.30
2018-03-15T20:54:05.957Z,97215.20
2018-03-15T20:56:37.733Z,97220.92
2018-03-15T20:59:08.649Z,97235.70
2018-03-15T21:01:39.624Z,97239.28
2018-03-15T21:04:10.622Z,97238.89
2018-03-15T21:06:42.691Z,97240.84
2018-03-15T21:09:14.131Z,97244.95
2018-03-15T21:11:45.138Z,97255.30
2018-03-15T21:14:17.562Z,97253.74
2018-03-15T21:16:48.834Z,97250.55
2018-03-15T21:19:19.890Z,97244.13
2018-03-15T21:21:51.081Z,97245.03
2018-03-15T21:24:22.330Z,97239.30
2018-03-15T21:26:53.137Z,97244.95
2018-03-15T21:29:24.477Z,97236.36
2018-03-15T21:31:55.841Z,97237.52
2018-03-15T21:34:26.825Z,97235.30
2018-03-15T21:36:59.073Z,97241.62
2018-03-15T21:39:30.179Z,97239.33
2018-03-15T21:42:01.101Z,97243.64
2018-03-15T21:44:32.705Z,97248.34
2018-03-15T21:47:04.249Z,97248.86
2018-03-15T21:49:35.105Z,97238.66
2018-03-15T21:52:06.778Z,97236.55
2018-03-15T21:54:37.645Z,97231.87
2018-03-15T21:57:08.925Z,97230.39
2018-03-15T21:59:39.889Z,97230.68
2018-03-15T22:02:10.758Z,97231.19
2018-03-15T22:04:41.838Z,97230.05
2018-03-15T22:07:13.141Z,97236.73
2018-03-15T22:09:43.895Z,97238.22
2018-03-15T22:12:15.325Z,97240.67
2018-03-15T22:14:46.207Z,97245.72
2018-03-15T22:17:17.021Z,97244.84
2018-03-15T22:19:48.077Z,97249.66
2018-03-15T22:22:18.903Z,97255.59
2018-03-15T22:24:49.729Z,97262.72
2018-03-15T22:27:20.809Z,97260.47
2018-03-15T22:29:52.249Z,97261.02
2018-03-15T22:32:23.202Z,97256.11
2018-03-15T22:34:54.317Z,97251.61
2018-03-15T22:37:25.141Z,97255.09
2018-03-15T22:39:56.624Z,97255.59
2018-03-15T22:42:32.248Z,97250.12
2018-03-15T22:45:03.464Z,97244.36
2018-03-15T22:47:34.978Z,97235.88
2018-03-15T22:50:06.068Z,97235.58
2018-03-15T22:52:36.843Z,97243.60
2018-03-15T22:55:08.294Z,97244.69
2018-03-15T22:57:39.794Z,97242.02
2018-03-15T23:00:11.782Z,97237.84
2018-03-15T23:02:42.864Z,97234.75
2018-03-15T23:05:14.095Z,97230.21
2018-03-15T23:07:45.134Z,97234.23
2018-03-15T23:10:15.935Z,97232.39
2018-03-15T23:12:47.004Z,97230.87
2018-03-15T23:15:18.592Z,97228.53
2018-03-15T23:17:49.404Z,97233.26
2018-03-15T23:20:20.395Z,97230.80
2018-03-15T23:22:52.171Z,97237.28
2018-03-15T23:25:23.917Z,97237.93
2018-03-15T23:27:54.673Z,97240.20
2018-03-15T23:30:26.257Z,97237.94
2018-03-15T23:32:57.463Z,97246.41
2018-03-15T23:35:28.737Z,97247.93
2018-03-15T23:37:59.889Z,97244.30
2018-03-15T23:40:31.705Z,97241.14
2018-03-15T23:43:02.545Z,97245.65
2018-03-15T23:45:33.917Z,97250.02
2018-03-15T23:48:04.823Z,97256.81
2018-03-15T23:50:36.253Z,97251.98
2018-03-15T23:53:07.893Z,97255.39
2018-03-15T23:55:38.693Z,97251.37
2018-03-15T23:58:09.515Z,97250.02
